createdAt,value
2019-03-29T01:00:40.480Z,56.59
2019-03-29T01:05:41.785Z,56.34
2019-03-29T01:10:43.116Z,57.05
2019-03-29T01:15:44.432Z,57.38
2019-03-29T01:20:45.774Z,58.44
2019-03-29T01:25:47.090Z,58.07
2019-03-29T02:34:10.207Z,59.76
2019-03-29T02:39:12.256Z,59.60
2019-03-29T02:44:13.580Z,59.66
2019-03-29T02:49:14.895Z,59.59
2019-03-29T02:54:16.209Z,60.13
2019-03-29T02:59:17.497Z,60.30
2019-03-29T04:01:18.324Z,61.25
2019-03-29T04:06:20.353Z,61.69
2019-03-29T04:11:21.686Z,62.33
2019-03-29T04:16:23.010Z,62.22
2019-03-29T04:21:24.371Z,62.46
2019-03-29T04:26:25.721Z,62.33
2019-03-29T05:34:47.249Z,61.56
2019-03-29T05:39:48.608Z,61.59
2019-03-29T05:44:50.010Z,61.42
2019-03-29T05:49:51.298Z,61.35
2019-03-29T05:54:52.649Z,61.68
2019-03-29T05:59:54.715Z,61.66
2019-03-29T07:01:59.175Z,61.25
2019-03-29T07:07:00.453Z,61.13
2019-03-29T07:12:01.797Z,61.73
2019-03-29T07:17:03.122Z,61.20
2019-03-29T07:22:04.398Z,60.40
2019-03-29T07:27:06.461Z,60.40
2019-03-29T08:35:28.149Z,57.18
2019-03-29T08:40:29.455Z,57.08
2019-03-29T08:45:30.772Z,57.05
2019-03-29T08:50:32.064Z,56.21
2019-03-29T08:55:45.110Z,55.46
2019-03-29T09:00:34.681Z,55.85
2019-03-29T10:02:36.473Z,48.03
2019-03-29T10:07:37.765Z,48.25
2019-03-29T10:12:43.682Z,47.92
2019-03-29T10:17:40.474Z,47.83
2019-03-29T10:22:41.836Z,46.75
2019-03-29T10:27:43.097Z,45.79
2019-03-29T11:36:06.448Z,42.29
2019-03-29T11:41:08.468Z,41.23
2019-03-29T11:46:09.745Z,40.17
2019-03-29T11:51:19.192Z,40.85
2019-03-29T11:56:12.357Z,40.27
2019-03-29T13:04:36.321Z,34.50
2019-03-29T13:09:39.775Z,34.14
2019-03-29T13:14:39.657Z,33.61
2019-03-29T13:19:41.680Z,33.30
2019-03-29T13:24:42.992Z,34.22
2019-03-29T13:29:45.094Z,32.09
2019-03-29T14:31:47.869Z,24.57
2019-03-29T14:36:49.162Z,22.72
2019-03-29T14:41:50.518Z,24.10
2019-03-29T14:46:51.941Z,23.91
2019-03-29T14:51:53.227Z,23.66
2019-03-29T14:56:54.533Z,22.91
2019-03-29T16:05:16.414Z,21.04
2019-03-29T16:10:17.769Z,21.12
2019-03-29T16:15:34.950Z,21.81
2019-03-29T16:20:27.500Z,22.44
2019-03-29T16:25:28.869Z,22.94
2019-03-29T16:30:32.842Z,23.00
2019-03-29T16:35:34.832Z,22.85
2019-03-29T16:40:36.213Z,23.24
2019-03-29T16:45:47.867Z,23.80
2019-03-29T16:50:39.007Z,23.78
2019-03-29T16:55:40.366Z,23.59
2019-03-29T17:00:41.822Z,24.05
2019-03-29T17:05:43.347Z,24.12
2019-03-29T17:10:44.840Z,24.77
2019-03-29T17:15:46.280Z,25.69
2019-03-29T17:20:48.607Z,26.52
2019-03-29T17:25:49.900Z,27.11
2019-03-29T17:30:51.284Z,27.84
2019-03-29T17:35:56.445Z,28.13
2019-03-29T17:40:58.032Z,28.64
2019-03-29T17:45:59.612Z,28.89
2019-03-29T17:51:01.081Z,29.10
2019-03-29T17:56:03.356Z,29.57
2019-03-29T18:01:13.422Z,29.58
2019-03-29T18:11:34.962Z,29.92
2019-03-29T18:16:40.759Z,30.38
2019-03-29T18:21:48.439Z,31.03
2019-03-29T18:26:49.845Z,31.02
2019-03-29T18:31:51.206Z,31.24
2019-03-29T18:36:52.517Z,31.84
2019-03-29T18:41:53.921Z,32.34
2019-03-29T18:46:55.305Z,32.49
2019-03-29T18:51:56.794Z,32.75
2019-03-29T18:56:58.126Z,32.92
2019-03-29T19:01:59.778Z,33.31
2019-03-29T19:07:00.893Z,33.37
2019-03-29T19:12:02.998Z,33.75
2019-03-29T19:17:04.412Z,34.03
2019-03-29T19:22:08.078Z,34.39
2019-03-29T19:27:13.079Z,34.39
2019-03-29T19:32:18.601Z,34.49
2019-03-29T19:37:27.207Z,34.65
2019-03-29T19:42:31.517Z,34.62
2019-03-29T19:47:36.405Z,34.84
2019-03-29T19:52:40.097Z,35.11
2019-03-29T19:57:47.413Z,35.50
2019-03-29T20:02:48.583Z,35.54
2019-03-29T20:07:49.899Z,35.66
2019-03-29T20:12:52.819Z,35.77
2019-03-29T20:17:54.911Z,36.14
2019-03-29T20:22:56.990Z,36.19
2019-03-29T20:27:59.034Z,36.62
2019-03-29T20:33:00.459Z,36.91
2019-03-29T20:38:01.774Z,37.38
2019-03-29T20:43:03.109Z,37.31
2019-03-29T20:48:04.486Z,37.15
2019-03-29T20:53:05.808Z,37.34
2019-03-29T20:58:08.013Z,37.71
2019-03-29T21:03:09.483Z,37.72
2019-03-29T21:08:10.825Z,38.03
2019-03-29T21:13:12.144Z,38.43
2019-03-29T21:18:13.492Z,38.61
2019-03-29T21:23:14.822Z,38.70
2019-03-29T21:28:16.273Z,38.67
2019-03-29T21:33:17.614Z,38.66
2019-03-29T21:38:18.951Z,38.93
2019-03-29T21:43:20.300Z,39.19
2019-03-29T21:48:28.710Z,39.41
2019-03-29T21:53:23.633Z,39.50
2019-03-29T21:58:25.062Z,39.55
2019-03-29T22:03:27.149Z,39.70
2019-03-29T22:08:29.086Z,40.08
2019-03-29T22:13:30.479Z,40.40
2019-03-29T22:18:37.802Z,40.54
2019-03-29T22:23:33.385Z,40.91
2019-03-29T22:28:34.810Z,41.01
2019-03-29T22:33:36.219Z,41.45
2019-03-29T22:38:37.654Z,41.47
2019-03-29T22:43:39.062Z,41.96
2019-03-29T22:48:51.571Z,42.07
2019-03-29T22:53:41.873Z,42.62
2019-03-29T22:58:43.270Z,42.81
2019-03-29T23:35:26.509Z,43.83
2019-03-29T23:40:27.785Z,43.75
2019-03-29T23:45:29.083Z,44.11
2019-03-29T23:50:30.401Z,44.17
2019-03-29T23:55:31.736Z,44.44
